Terminal Aerodrome Forecast
Issued by NWS

Home | Current Version | Previous Version | Text Only | Print | Product List | Glossary Off
Versions: 1 2 3 4 5 6 7 8 9 10 11 12 13 14 15 16 17 18 19 20 21

736
FTUS43 KABR 241729
TAFATY
TAF
KATY 241729Z 2418/2518 15017G24KT P6SM BKN040
     FM242100 17015KT P6SM -SHRA VCTS BKN020 OVC060CB
     FM250100 18009KT P6SM BKN150
     FM250700 23010G17KT P6SM FEW200
     FM251400 29018G28KT P6SM OVC035=

USA.gov is the U.S. government's official web portal to all federal, state and local government web resources and services.